sensor_id;sensor_type;location;lat;lon;timestamp;temperature;humidity
6756;DHT22;3415;51.148;7.014;2022-12-10T00:01:39;-1.70;99.90
6756;DHT22;3415;51.148;7.014;2022-12-10T00:04:08;-1.70;99.90
6756;DHT22;3415;51.148;7.014;2022-12-10T00:06:37;-1.80;99.90
6756;DHT22;3415;51.148;7.014;2022-12-10T00:09:06;-1.80;99.90
6756;DHT22;3415;51.148;7.014;2022-12-10T00:11:38;-1.80;99.90
6756;DHT22;3415;51.148;7.014;2022-12-10T00:14:06;-1.80;99.90
6756;DHT22;3415;51.148;7.014;2022-12-10T00:16:34;-1.90;99.90
6756;DHT22;3415;51.148;7.014;2022-12-10T00:19:02;-1.90;99.90
6756;DHT22;3415;51.148;7.014;2022-12-10T00:21:32;-1.90;99.90
6756;DHT22;3415;51.148;7.014;2022-12-10T00:24:00;-1.90;99.90
6756;DHT22;3415;51.148;7.014;2022-12-10T00:26:30;-1.90;99.90
6756;DHT22;3415;51.148;7.014;2022-12-10T00:29:02;-1.90;99.90
6756;DHT22;3415;51.148;7.014;2022-12-10T00:31:31;-1.90;99.90
6756;DHT22;3415;51.148;7.014;2022-12-10T00:34:01;-2.00;99.90
6756;DHT22;3415;51.148;7.014;2022-12-10T00:36:32;-1.90;99.90
6756;DHT22;3415;51.148;7.014;2022-12-10T00:39:00;-1.90;99.90
6756;DHT22;3415;51.148;7.014;2022-12-10T00:41:28;-1.90;99.90
6756;DHT22;3415;51.148;7.014;2022-12-10T00:43:55;-1.90;99.90
6756;DHT22;3415;51.148;7.014;2022-12-10T00:46:23;-2.00;99.90
6756;DHT22;3415;51.148;7.014;2022-12-10T00:48:51;-1.90;99.90
6756;DHT22;3415;51.148;7.014;2022-12-10T00:51:20;-2.00;99.90
6756;DHT22;3415;51.148;7.014;2022-12-10T00:53:50;-2.00;99.90
6756;DHT22;3415;51.148;7.014;2022-12-10T00:56:19;-2.00;99.90
6756;DHT22;3415;51.148;7.014;2022-12-10T00:58:48;-2.00;99.90
6756;DHT22;3415;51.148;7.014;2022-12-10T01:01:17;-2.00;99.90
6756;DHT22;3415;51.148;7.014;2022-12-10T01:03:51;-2.10;99.90
6756;DHT22;3415;51.148;7.014;2022-12-10T01:06:21;-2.10;99.90
6756;DHT22;3415;51.148;7.014;2022-12-10T01:08:51;-2.10;99.90
6756;DHT22;3415;51.148;7.014;2022-12-10T01:11:20;-2.10;99.90
6756;DHT22;3415;51.148;7.014;2022-12-10T01:13:48;-2.20;99.90
6756;DHT22;3415;51.148;7.014;2022-12-10T01:16:18;-2.20;99.90
6756;DHT22;3415;51.148;7.014;2022-12-10T01:18:46;-2.20;99.90
6756;DHT22;3415;51.148;7.014;2022-12-10T01:21:17;-2.20;99.90
6756;DHT22;3415;51.148;7.014;2022-12-10T01:23:47;-2.30;99.90
6756;DHT22;3415;51.148;7.014;2022-12-10T01:26:16;-2.20;99.90
6756;DHT22;3415;51.148;7.014;2022-12-10T01:28:45;-2.20;99.90
6756;DHT22;3415;51.148;7.014;2022-12-10T01:31:14;-2.30;99.90
6756;DHT22;3415;51.148;7.014;2022-12-10T01:33:44;-2.30;99.90
6756;DHT22;3415;51.148;7.014;2022-12-10T01:36:14;-2.30;99.90
6756;DHT22;3415;51.148;7.014;2022-12-10T01:38:43;-2.30;99.90
6756;DHT22;3415;51.148;7.014;2022-12-10T01:41:14;-2.30;99.90
6756;DHT22;3415;51.148;7.014;2022-12-10T01:43:54;-2.30;99.90
6756;DHT22;3415;51.148;7.014;2022-12-10T01:46:24;-2.30;99.90
6756;DHT22;3415;51.148;7.014;2022-12-10T01:48:52;-2.30;99.90
6756;DHT22;3415;51.148;7.014;2022-12-10T01:51:21;-2.30;99.90
6756;DHT22;3415;51.148;7.014;2022-12-10T01:53:49;-2.30;99.90
6756;DHT22;3415;51.148;7.014;2022-12-10T01:56:18;-2.30;99.90
6756;DHT22;3415;51.148;7.014;2022-12-10T01:58:48;-2.40;99.90
6756;DHT22;3415;51.148;7.014;2022-12-10T02:01:21;-2.40;99.90
6756;DHT22;3415;51.148;7.014;2022-12-10T02:03:59;-2.40;99.90
6756;DHT22;3415;51.148;7.014;2022-12-10T02:06:45;-2.40;99.90
6756;DHT22;3415;51.148;7.014;2022-12-10T02:09:25;-2.40;99.90
6756;DHT22;3415;51.148;7.014;2022-12-10T02:12:05;-2.50;99.90
6756;DHT22;3415;51.148;7.014;2022-12-10T02:14:42;-2.40;99.90
6756;DHT22;3415;51.148;7.014;2022-12-10T02:17:15;-2.50;99.90
6756;DHT22;3415;51.148;7.014;2022-12-10T02:19:56;-2.60;99.90
6756;DHT22;3415;51.148;7.014;2022-12-10T02:22:33;-2.50;99.90
6756;DHT22;3415;51.148;7.014;2022-12-10T02:25:04;-2.50;99.90
6756;DHT22;3415;51.148;7.014;2022-12-10T02:27:37;-2.50;99.90
6756;DHT22;3415;51.148;7.014;2022-12-10T02:30:10;-2.60;99.90
6756;DHT22;3415;51.148;7.014;2022-12-10T02:32:39;-2.80;99.90
6756;DHT22;3415;51.148;7.014;2022-12-10T02:35:11;-2.70;99.90
6756;DHT22;3415;51.148;7.014;2022-12-10T02:37:45;-2.80;99.90
6756;DHT22;3415;51.148;7.014;2022-12-10T02:40:17;-2.80;99.90
6756;DHT22;3415;51.148;7.014;2022-12-10T02:42:50;-2.90;99.90
6756;DHT22;3415;51.148;7.014;2022-12-10T02:45:22;-2.90;99.90
6756;DHT22;3415;51.148;7.014;2022-12-10T02:47:51;-2.90;99.90
6756;DHT22;3415;51.148;7.014;2022-12-10T02:50:21;-2.80;99.90
6756;DHT22;3415;51.148;7.014;2022-12-10T02:52:49;-2.90;99.90
6756;DHT22;3415;51.148;7.014;2022-12-10T02:55:17;-2.90;99.90
6756;DHT22;3415;51.148;7.014;2022-12-10T02:57:54;-3.00;99.90
6756;DHT22;3415;51.148;7.014;2022-12-10T03:00:32;-3.00;99.90
6756;DHT22;3415;51.148;7.014;2022-12-10T03:03:15;-3.00;99.90
6756;DHT22;3415;51.148;7.014;2022-12-10T03:05:53;-2.90;99.90
6756;DHT22;3415;51.148;7.014;2022-12-10T03:08:26;-2.90;99.90
6756;DHT22;3415;51.148;7.014;2022-12-10T03:10:59;-2.90;99.90
6756;DHT22;3415;51.148;7.014;2022-12-10T03:13:34;-3.00;99.90
6756;DHT22;3415;51.148;7.014;2022-12-10T03:16:05;-3.00;99.90
6756;DHT22;3415;51.148;7.014;2022-12-10T03:18:35;-3.00;99.90
6756;DHT22;3415;51.148;7.014;2022-12-10T03:21:05;-2.90;99.90
6756;DHT22;3415;51.148;7.014;2022-12-10T03:23:35;-2.90;99.90
6756;DHT22;3415;51.148;7.014;2022-12-10T03:26:04;-2.90;99.90
6756;DHT22;3415;51.148;7.014;2022-12-10T03:28:34;-2.90;99.90
6756;DHT22;3415;51.148;7.014;2022-12-10T03:31:06;-2.90;99.90
6756;DHT22;3415;51.148;7.014;2022-12-10T03:33:34;-2.80;99.90
6756;DHT22;3415;51.148;7.014;2022-12-10T03:36:02;-2.80;99.90
6756;DHT22;3415;51.148;7.014;2022-12-10T03:38:30;-2.70;99.90
6756;DHT22;3415;51.148;7.014;2022-12-10T03:40:57;-2.60;99.90
6756;DHT22;3415;51.148;7.014;2022-12-10T03:43:24;-2.50;99.90
6756;DHT22;3415;51.148;7.014;2022-12-10T03:45:51;-2.40;99.90
6756;DHT22;3415;51.148;7.014;2022-12-10T03:48:19;-2.20;99.90
6756;DHT22;3415;51.148;7.014;2022-12-10T03:50:46;-2.10;99.90
6756;DHT22;3415;51.148;7.014;2022-12-10T03:53:13;-2.10;99.90
6756;DHT22;3415;51.148;7.014;2022-12-10T03:55:40;-2.00;99.90
6756;DHT22;3415;51.148;7.014;2022-12-10T03:58:07;-2.00;99.90
6756;DHT22;3415;51.148;7.014;2022-12-10T04:00:34;-2.80;99.90
6756;DHT22;3415;51.148;7.014;2022-12-10T04:03:01;-1.90;99.90
6756;DHT22;3415;51.148;7.014;2022-12-10T04:05:30;-1.90;99.90
6756;DHT22;3415;51.148;7.014;2022-12-10T04:07:57;-1.90;99.90
6756;DHT22;3415;51.148;7.014;2022-12-10T04:10:24;-1.60;99.90
6756;DHT22;3415;51.148;7.014;2022-12-10T04:12:51;-1.50;99.90
6756;DHT22;3415;51.148;7.014;2022-12-10T04:15:31;-1.50;99.90
6756;DHT22;3415;51.148;7.014;2022-12-10T04:18:16;-1.60;99.90
6756;DHT22;3415;51.148;7.014;2022-12-10T04:20:45;-1.50;99.90
6756;DHT22;3415;51.148;7.014;2022-12-10T04:23:29;-1.50;99.90
6756;DHT22;3415;51.148;7.014;2022-12-10T04:26:14;-1.50;99.90
6756;DHT22;3415;51.148;7.014;2022-12-10T04:28:58;-1.40;99.90
6756;DHT22;3415;51.148;7.014;2022-12-10T04:31:25;-1.40;99.90
6756;DHT22;3415;51.148;7.014;2022-12-10T04:33:52;-1.30;99.90
6756;DHT22;3415;51.148;7.014;2022-12-10T04:36:21;-1.30;99.90
6756;DHT22;3415;51.148;7.014;2022-12-10T04:38:47;-1.40;99.90
6756;DHT22;3415;51.148;7.014;2022-12-10T04:41:15;-1.30;99.90
6756;DHT22;3415;51.148;7.014;2022-12-10T04:43:41;-1.40;99.90
6756;DHT22;3415;51.148;7.014;2022-12-10T04:46:09;-1.40;99.90
6756;DHT22;3415;51.148;7.014;2022-12-10T04:48:37;-1.30;99.90
6756;DHT22;3415;51.148;7.014;2022-12-10T04:51:04;-1.40;99.90
6756;DHT22;3415;51.148;7.014;2022-12-10T04:53:32;-1.40;99.90
6756;DHT22;3415;51.148;7.014;2022-12-10T04:55:59;-1.40;99.90
6756;DHT22;3415;51.148;7.014;2022-12-10T04:58:27;-1.40;99.90
6756;DHT22;3415;51.148;7.014;2022-12-10T05:01:01;-1.40;99.90
6756;DHT22;3415;51.148;7.014;2022-12-10T05:03:29;-1.30;99.90
6756;DHT22;3415;51.148;7.014;2022-12-10T05:06:00;-1.40;99.90
6756;DHT22;3415;51.148;7.014;2022-12-10T05:08:28;-1.30;99.90
6756;DHT22;3415;51.148;7.014;2022-12-10T05:11:00;-1.30;99.90
6756;DHT22;3415;51.148;7.014;2022-12-10T05:13:28;-1.30;99.90
6756;DHT22;3415;51.148;7.014;2022-12-10T05:15:56;-1.30;99.90
6756;DHT22;3415;51.148;7.014;2022-12-10T05:18:23;-1.30;99.90
6756;DHT22;3415;51.148;7.014;2022-12-10T05:20:50;-1.30;99.90
6756;DHT22;3415;51.148;7.014;2022-12-10T05:23:17;-1.30;99.90
6756;DHT22;3415;51.148;7.014;2022-12-10T05:26:02;-1.40;99.90
6756;DHT22;3415;51.148;7.014;2022-12-10T05:28:31;-1.40;99.90
6756;DHT22;3415;51.148;7.014;2022-12-10T05:31:00;-1.40;99.90
6756;DHT22;3415;51.148;7.014;2022-12-10T05:33:27;-1.40;99.90
6756;DHT22;3415;51.148;7.014;2022-12-10T05:35:56;-1.40;99.90
6756;DHT22;3415;51.148;7.014;2022-12-10T05:38:25;-1.30;99.90
6756;DHT22;3415;51.148;7.014;2022-12-10T05:40:52;-1.40;99.90
6756;DHT22;3415;51.148;7.014;2022-12-10T05:43:21;-1.30;99.90
6756;DHT22;3415;51.148;7.014;2022-12-10T05:45:48;-1.30;99.90
6756;DHT22;3415;51.148;7.014;2022-12-10T05:48:15;-1.30;99.90
6756;DHT22;3415;51.148;7.014;2022-12-10T05:50:42;-1.20;99.90
6756;DHT22;3415;51.148;7.014;2022-12-10T05:53:10;-1.20;99.90
6756;DHT22;3415;51.148;7.014;2022-12-10T05:55:39;-1.20;99.90
6756;DHT22;3415;51.148;7.014;2022-12-10T05:58:06;-1.20;99.90
6756;DHT22;3415;51.148;7.014;2022-12-10T06:00:35;-1.20;99.90
6756;DHT22;3415;51.148;7.014;2022-12-10T06:03:04;-1.30;99.90
6756;DHT22;3415;51.148;7.014;2022-12-10T06:05:36;-1.20;99.90
6756;DHT22;3415;51.148;7.014;2022-12-10T06:08:03;-1.20;99.90
6756;DHT22;3415;51.148;7.014;2022-12-10T06:10:30;-1.20;99.90
6756;DHT22;3415;51.148;7.014;2022-12-10T06:12:57;-1.10;99.90
6756;DHT22;3415;51.148;7.014;2022-12-10T06:15:24;-1.10;99.90
6756;DHT22;3415;51.148;7.014;2022-12-10T06:17:54;-1.10;99.90
6756;DHT22;3415;51.148;7.014;2022-12-10T06:20:21;-1.20;99.90
6756;DHT22;3415;51.148;7.014;2022-12-10T06:22:48;-1.10;99.90
6756;DHT22;3415;51.148;7.014;2022-12-10T06:25:15;-1.20;99.90
6756;DHT22;3415;51.148;7.014;2022-12-10T06:27:43;-1.10;99.90
6756;DHT22;3415;51.148;7.014;2022-12-10T06:30:11;-1.00;99.90
6756;DHT22;3415;51.148;7.014;2022-12-10T06:32:38;-1.00;99.90
6756;DHT22;3415;51.148;7.014;2022-12-10T06:35:10;-1.10;99.90
6756;DHT22;3415;51.148;7.014;2022-12-10T06:37:38;-1.00;99.90
6756;DHT22;3415;51.148;7.014;2022-12-10T06:40:06;-1.30;99.90
6756;DHT22;3415;51.148;7.014;2022-12-10T06:45:02;-1.20;99.90
6756;DHT22;3415;51.148;7.014;2022-12-10T06:47:30;-1.20;99.90
6756;DHT22;3415;51.148;7.014;2022-12-10T06:49:58;-1.30;99.90
6756;DHT22;3415;51.148;7.014;2022-12-10T06:52:26;-1.30;99.90
6756;DHT22;3415;51.148;7.014;2022-12-10T06:54:54;-1.50;99.90
6756;DHT22;3415;51.148;7.014;2022-12-10T06:57:22;-1.50;99.90
6756;DHT22;3415;51.148;7.014;2022-12-10T06:59:49;-1.60;99.90
6756;DHT22;3415;51.148;7.014;2022-12-10T07:02:16;-1.70;99.90
6756;DHT22;3415;51.148;7.014;2022-12-10T07:04:43;-1.80;99.90
6756;DHT22;3415;51.148;7.014;2022-12-10T07:07:10;-1.80;99.90
6756;DHT22;3415;51.148;7.014;2022-12-10T07:09:38;-1.80;99.90
6756;DHT22;3415;51.148;7.014;2022-12-10T07:12:05;-1.80;99.90
6756;DHT22;3415;51.148;7.014;2022-12-10T07:14:32;-1.80;99.90
6756;DHT22;3415;51.148;7.014;2022-12-10T07:19:27;-1.90;99.90
6756;DHT22;3415;51.148;7.014;2022-12-10T07:21:54;-1.90;99.90
6756;DHT22;3415;51.148;7.014;2022-12-10T07:24:21;-1.80;99.90
6756;DHT22;3415;51.148;7.014;2022-12-10T07:26:50;-1.80;99.90
6756;DHT22;3415;51.148;7.014;2022-12-10T07:29:19;-1.80;99.90
6756;DHT22;3415;51.148;7.014;2022-12-10T07:31:48;-1.80;99.90
6756;DHT22;3415;51.148;7.014;2022-12-10T07:34:16;-1.80;99.90
6756;DHT22;3415;51.148;7.014;2022-12-10T07:36:43;-1.70;99.90
6756;DHT22;3415;51.148;7.014;2022-12-10T07:39:10;-1.60;99.90
6756;DHT22;3415;51.148;7.014;2022-12-10T07:41:43;-1.70;99.90
6756;DHT22;3415;51.148;7.014;2022-12-10T07:44:12;-1.70;99.90
6756;DHT22;3415;51.148;7.014;2022-12-10T07:46:40;-1.60;99.90
6756;DHT22;3415;51.148;7.014;2022-12-10T07:49:07;-1.60;99.90
6756;DHT22;3415;51.148;7.014;2022-12-10T07:51:34;-1.60;99.90
6756;DHT22;3415;51.148;7.014;2022-12-10T07:54:01;-1.60;99.90
6756;DHT22;3415;51.148;7.014;2022-12-10T07:56:28;-1.60;99.90
6756;DHT22;3415;51.148;7.014;2022-12-10T07:58:55;-1.50;99.90
6756;DHT22;3415;51.148;7.014;2022-12-10T08:01:25;-1.50;99.90
6756;DHT22;3415;51.148;7.014;2022-12-10T08:03:54;-1.30;99.90
6756;DHT22;3415;51.148;7.014;2022-12-10T08:06:24;-1.20;99.90
6756;DHT22;3415;51.148;7.014;2022-12-10T08:08:53;-1.20;99.90
6756;DHT22;3415;51.148;7.014;2022-12-10T08:11:21;-1.10;99.90
6756;DHT22;3415;51.148;7.014;2022-12-10T08:13:48;-1.10;99.90
6756;DHT22;3415;51.148;7.014;2022-12-10T08:16:17;-1.00;99.90
6756;DHT22;3415;51.148;7.014;2022-12-10T08:18:47;-1.00;99.90
6756;DHT22;3415;51.148;7.014;2022-12-10T08:21:15;-0.90;99.90
6756;DHT22;3415;51.148;7.014;2022-12-10T08:23:44;-1.00;99.90
6756;DHT22;3415;51.148;7.014;2022-12-10T08:26:14;-0.90;99.90
6756;DHT22;3415;51.148;7.014;2022-12-10T08:31:10;-0.80;99.90
6756;DHT22;3415;51.148;7.014;2022-12-10T08:33:39;-0.70;99.90
6756;DHT22;3415;51.148;7.014;2022-12-10T08:36:10;-0.70;64.40
6756;DHT22;3415;51.148;7.014;2022-12-10T08:41:09;-0.60;31.90
6756;DHT22;3415;51.148;7.014;2022-12-10T08:43:37;-0.60;34.90
6756;DHT22;3415;51.148;7.014;2022-12-10T08:46:04;-0.60;34.60
6756;DHT22;3415;51.148;7.014;2022-12-10T08:48:32;-0.60;31.80
6756;DHT22;3415;51.148;7.014;2022-12-10T08:53:27;-0.30;32.20
6756;DHT22;3415;51.148;7.014;2022-12-10T08:55:55;-0.50;34.40
6756;DHT22;3415;51.148;7.014;2022-12-10T08:58:21;-0.40;33.20
6756;DHT22;3415;51.148;7.014;2022-12-10T09:00:49;-0.30;32.10
6756;DHT22;3415;51.148;7.014;2022-12-10T09:03:16;-0.30;34.90
6756;DHT22;3415;51.148;7.014;2022-12-10T09:05:44;-0.20;23.70
6756;DHT22;3415;51.148;7.014;2022-12-10T09:08:11;-0.10;15.00
6756;DHT22;3415;51.148;7.014;2022-12-10T09:10:39;-0.10;1.00
6756;DHT22;3415;51.148;7.014;2022-12-10T09:13:07;-0.20;1.00
6756;DHT22;3415;51.148;7.014;2022-12-10T09:15:34;-0.20;1.00
6756;DHT22;3415;51.148;7.014;2022-12-10T09:18:01;-0.20;1.00
6756;DHT22;3415;51.148;7.014;2022-12-10T09:20:28;-0.20;1.00
6756;DHT22;3415;51.148;7.014;2022-12-10T09:22:55;-0.20;1.00
6756;DHT22;3415;51.148;7.014;2022-12-10T09:27:51;-0.10;1.00
6756;DHT22;3415;51.148;7.014;2022-12-10T09:30:18;-0.10;1.00
6756;DHT22;3415;51.148;7.014;2022-12-10T09:32:45;0.60;1.00
6756;DHT22;3415;51.148;7.014;2022-12-10T09:35:12;0.10;1.00
6756;DHT22;3415;51.148;7.014;2022-12-10T09:40:07;0.10;1.00
6756;DHT22;3415;51.148;7.014;2022-12-10T09:42:44;0.20;1.00
6756;DHT22;3415;51.148;7.014;2022-12-10T09:45:20;0.10;1.00
6756;DHT22;3415;51.148;7.014;2022-12-10T09:47:57;0.10;1.00
6756;DHT22;3415;51.148;7.014;2022-12-10T09:50:31;0.30;1.00
6756;DHT22;3415;51.148;7.014;2022-12-10T09:53:02;0.20;1.00
6756;DHT22;3415;51.148;7.014;2022-12-10T09:55:35;0.00;1.00
6756;DHT22;3415;51.148;7.014;2022-12-10T09:58:05;0.00;1.00
6756;DHT22;3415;51.148;7.014;2022-12-10T10:00:39;0.00;1.00
6756;DHT22;3415;51.148;7.014;2022-12-10T10:03:12;0.00;1.00
6756;DHT22;3415;51.148;7.014;2022-12-10T10:05:42;-0.10;1.00
6756;DHT22;3415;51.148;7.014;2022-12-10T10:08:26;-0.10;1.00
6756;DHT22;3415;51.148;7.014;2022-12-10T10:10:55;0.10;1.00
6756;DHT22;3415;51.148;7.014;2022-12-10T10:13:30;0.10;1.00
6756;DHT22;3415;51.148;7.014;2022-12-10T10:16:13;0.20;1.00
6756;DHT22;3415;51.148;7.014;2022-12-10T10:18:48;0.20;1.00
6756;DHT22;3415;51.148;7.014;2022-12-10T10:21:22;0.20;1.00
6756;DHT22;3415;51.148;7.014;2022-12-10T10:23:50;0.20;1.00
6756;DHT22;3415;51.148;7.014;2022-12-10T10:26:18;0.30;1.00
6756;DHT22;3415;51.148;7.014;2022-12-10T10:28:45;0.60;1.00
6756;DHT22;3415;51.148;7.014;2022-12-10T10:31:19;0.60;1.00
6756;DHT22;3415;51.148;7.014;2022-12-10T10:33:50;0.50;1.00
6756;DHT22;3415;51.148;7.014;2022-12-10T10:36:24;1.10;1.00
6756;DHT22;3415;51.148;7.014;2022-12-10T10:41:20;0.60;1.00
6756;DHT22;3415;51.148;7.014;2022-12-10T10:43:49;0.60;1.00
6756;DHT22;3415;51.148;7.014;2022-12-10T10:46:22;0.40;1.00
6756;DHT22;3415;51.148;7.014;2022-12-10T10:48:50;0.30;1.00
6756;DHT22;3415;51.148;7.014;2022-12-10T10:51:19;0.40;1.00
6756;DHT22;3415;51.148;7.014;2022-12-10T10:53:49;0.40;1.00
6756;DHT22;3415;51.148;7.014;2022-12-10T10:56:21;0.30;1.00
6756;DHT22;3415;51.148;7.014;2022-12-10T10:58:56;0.50;1.00
6756;DHT22;3415;51.148;7.014;2022-12-10T11:01:44;0.40;1.00
6756;DHT22;3415;51.148;7.014;2022-12-10T11:04:13;0.30;1.00
6756;DHT22;3415;51.148;7.014;2022-12-10T11:06:42;0.40;1.00
6756;DHT22;3415;51.148;7.014;2022-12-10T11:09:19;0.40;1.00
6756;DHT22;3415;51.148;7.014;2022-12-10T11:11:50;0.50;1.00
6756;DHT22;3415;51.148;7.014;2022-12-10T11:14:25;0.50;1.00
6756;DHT22;3415;51.148;7.014;2022-12-10T11:17:01;0.40;1.00
6756;DHT22;3415;51.148;7.014;2022-12-10T11:19:29;0.60;1.00
6756;DHT22;3415;51.148;7.014;2022-12-10T11:22:16;0.60;1.00
6756;DHT22;3415;51.148;7.014;2022-12-10T11:24:46;0.60;1.00
6756;DHT22;3415;51.148;7.014;2022-12-10T11:27:18;0.60;1.00
6756;DHT22;3415;51.148;7.014;2022-12-10T11:30:05;0.50;1.00
6756;DHT22;3415;51.148;7.014;2022-12-10T11:32:46;0.60;1.00
6756;DHT22;3415;51.148;7.014;2022-12-10T11:35:23;0.70;1.00
6756;DHT22;3415;51.148;7.014;2022-12-10T11:37:57;0.70;1.00
6756;DHT22;3415;51.148;7.014;2022-12-10T11:40:35;0.80;1.00
6756;DHT22;3415;51.148;7.014;2022-12-10T11:43:17;0.80;1.00
6756;DHT22;3415;51.148;7.014;2022-12-10T11:46:00;0.70;1.00
6756;DHT22;3415;51.148;7.014;2022-12-10T11:48:50;0.70;1.00
6756;DHT22;3415;51.148;7.014;2022-12-10T11:51:27;0.70;1.00
6756;DHT22;3415;51.148;7.014;2022-12-10T11:54:11;0.60;1.00
6756;DHT22;3415;51.148;7.014;2022-12-10T11:56:51;0.70;1.00
6756;DHT22;3415;51.148;7.014;2022-12-10T11:59:26;0.70;1.00
6756;DHT22;3415;51.148;7.014;2022-12-10T12:02:21;0.80;1.00
6756;DHT22;3415;51.148;7.014;2022-12-10T12:05:09;0.80;1.00
6756;DHT22;3415;51.148;7.014;2022-12-10T12:07:49;0.90;1.00
6756;DHT22;3415;51.148;7.014;2022-12-10T12:10:46;0.90;1.00
6756;DHT22;3415;51.148;7.014;2022-12-10T12:13:23;0.70;1.00
6756;DHT22;3415;51.148;7.014;2022-12-10T12:15:55;0.80;1.00
6756;DHT22;3415;51.148;7.014;2022-12-10T12:18:31;0.60;1.00
6756;DHT22;3415;51.148;7.014;2022-12-10T12:21:08;0.60;1.00
6756;DHT22;3415;51.148;7.014;2022-12-10T12:23:45;0.80;1.00
6756;DHT22;3415;51.148;7.014;2022-12-10T12:26:19;0.70;1.00
6756;DHT22;3415;51.148;7.014;2022-12-10T12:28:53;0.70;1.00
6756;DHT22;3415;51.148;7.014;2022-12-10T12:31:29;0.60;1.00
6756;DHT22;3415;51.148;7.014;2022-12-10T12:34:01;0.60;1.00
6756;DHT22;3415;51.148;7.014;2022-12-10T12:36:34;0.60;1.00
6756;DHT22;3415;51.148;7.014;2022-12-10T12:39:05;0.60;1.00
6756;DHT22;3415;51.148;7.014;2022-12-10T12:41:43;0.60;1.00
6756;DHT22;3415;51.148;7.014;2022-12-10T12:44:18;0.60;1.00
6756;DHT22;3415;51.148;7.014;2022-12-10T12:46:50;0.50;1.00
6756;DHT22;3415;51.148;7.014;2022-12-10T12:49:21;0.60;1.00
6756;DHT22;3415;51.148;7.014;2022-12-10T12:51:54;0.50;1.00
6756;DHT22;3415;51.148;7.014;2022-12-10T12:54:23;0.50;1.00
6756;DHT22;3415;51.148;7.014;2022-12-10T12:56:59;0.50;1.00
6756;DHT22;3415;51.148;7.014;2022-12-10T13:02:39;0.50;1.00
6756;DHT22;3415;51.148;7.014;2022-12-10T13:05:14;0.50;1.00
6756;DHT22;3415;51.148;7.014;2022-12-10T13:08:25;0.50;1.00
6756;DHT22;3415;51.148;7.014;2022-12-10T13:11:27;0.50;1.00
6756;DHT22;3415;51.148;7.014;2022-12-10T13:14:16;0.50;1.00
6756;DHT22;3415;51.148;7.014;2022-12-10T13:17:22;0.50;1.00
6756;DHT22;3415;51.148;7.014;2022-12-10T13:22:53;0.50;1.00
6756;DHT22;3415;51.148;7.014;2022-12-10T13:25:54;0.50;1.00
6756;DHT22;3415;51.148;7.014;2022-12-10T13:28:29;0.50;1.00
6756;DHT22;3415;51.148;7.014;2022-12-10T13:31:17;0.50;1.00
6756;DHT22;3415;51.148;7.014;2022-12-10T13:33:48;0.60;1.00
6756;DHT22;3415;51.148;7.014;2022-12-10T13:36:24;0.60;1.00
6756;DHT22;3415;51.148;7.014;2022-12-10T13:39:10;0.60;1.00
6756;DHT22;3415;51.148;7.014;2022-12-10T13:45:26;0.60;1.00
6756;DHT22;3415;51.148;7.014;2022-12-10T13:48:22;0.60;1.00
6756;DHT22;3415;51.148;7.014;2022-12-10T13:50:59;0.60;1.00
6756;DHT22;3415;51.148;7.014;2022-12-10T13:53:47;0.60;1.00
6756;DHT22;3415;51.148;7.014;2022-12-10T13:56:26;0.60;1.00
6756;DHT22;3415;51.148;7.014;2022-12-10T13:59:03;0.70;1.00
6756;DHT22;3415;51.148;7.014;2022-12-10T14:01:46;0.70;1.00
6756;DHT22;3415;51.148;7.014;2022-12-10T14:04:42;0.70;1.00
6756;DHT22;3415;51.148;7.014;2022-12-10T14:07:15;0.70;1.00
6756;DHT22;3415;51.148;7.014;2022-12-10T14:09:48;0.70;1.00
6756;DHT22;3415;51.148;7.014;2022-12-10T14:12:20;0.60;1.00
6756;DHT22;3415;51.148;7.014;2022-12-10T14:14:56;0.60;1.00
6756;DHT22;3415;51.148;7.014;2022-12-10T14:17:33;0.60;1.00
6756;DHT22;3415;51.148;7.014;2022-12-10T14:20:06;0.70;1.00
6756;DHT22;3415;51.148;7.014;2022-12-10T14:22:37;0.70;1.00
6756;DHT22;3415;51.148;7.014;2022-12-10T14:25:12;0.70;1.00
6756;DHT22;3415;51.148;7.014;2022-12-10T14:27:40;0.70;1.00
6756;DHT22;3415;51.148;7.014;2022-12-10T14:30:16;0.70;1.00
6756;DHT22;3415;51.148;7.014;2022-12-10T14:32:44;0.60;1.00
6756;DHT22;3415;51.148;7.014;2022-12-10T14:35:16;0.60;1.00
6756;DHT22;3415;51.148;7.014;2022-12-10T14:37:47;0.50;1.00
6756;DHT22;3415;51.148;7.014;2022-12-10T14:40:21;0.50;1.00
6756;DHT22;3415;51.148;7.014;2022-12-10T14:42:51;0.60;1.00
6756;DHT22;3415;51.148;7.014;2022-12-10T14:45:21;0.90;1.00
6756;DHT22;3415;51.148;7.014;2022-12-10T14:47:48;0.50;1.00
6756;DHT22;3415;51.148;7.014;2022-12-10T14:50:17;0.50;1.00
6756;DHT22;3415;51.148;7.014;2022-12-10T14:52:49;0.50;1.00
6756;DHT22;3415;51.148;7.014;2022-12-10T14:55:19;0.50;1.00
6756;DHT22;3415;51.148;7.014;2022-12-10T14:57:54;0.50;1.00
6756;DHT22;3415;51.148;7.014;2022-12-10T15:00:23;0.50;1.00
6756;DHT22;3415;51.148;7.014;2022-12-10T15:02:53;0.50;1.00
6756;DHT22;3415;51.148;7.014;2022-12-10T15:05:25;0.60;1.00
6756;DHT22;3415;51.148;7.014;2022-12-10T15:07:56;0.50;1.00
6756;DHT22;3415;51.148;7.014;2022-12-10T15:10:26;0.50;1.00
6756;DHT22;3415;51.148;7.014;2022-12-10T15:12:55;0.50;1.00
6756;DHT22;3415;51.148;7.014;2022-12-10T15:15:28;0.50;1.00
6756;DHT22;3415;51.148;7.014;2022-12-10T15:17:59;0.50;1.00
6756;DHT22;3415;51.148;7.014;2022-12-10T15:20:30;0.50;1.00
6756;DHT22;3415;51.148;7.014;2022-12-10T15:23:15;0.50;1.00
6756;DHT22;3415;51.148;7.014;2022-12-10T15:25:50;0.50;1.00
6756;DHT22;3415;51.148;7.014;2022-12-10T15:28:24;0.50;1.00
6756;DHT22;3415;51.148;7.014;2022-12-10T15:30:55;0.50;1.00
6756;DHT22;3415;51.148;7.014;2022-12-10T15:33:30;0.50;1.00
6756;DHT22;3415;51.148;7.014;2022-12-10T15:36:02;0.60;1.00
6756;DHT22;3415;51.148;7.014;2022-12-10T15:38:29;0.60;1.00
6756;DHT22;3415;51.148;7.014;2022-12-10T15:43:58;0.50;1.00
6756;DHT22;3415;51.148;7.014;2022-12-10T15:46:27;0.60;1.00
6756;DHT22;3415;51.148;7.014;2022-12-10T15:51:23;0.60;1.00
6756;DHT22;3415;51.148;7.014;2022-12-10T15:56:18;0.60;1.00
6756;DHT22;3415;51.148;7.014;2022-12-10T16:01:13;0.60;1.00
6756;DHT22;3415;51.148;7.014;2022-12-10T16:03:41;0.60;1.00
6756;DHT22;3415;51.148;7.014;2022-12-10T16:06:09;0.60;1.00
6756;DHT22;3415;51.148;7.014;2022-12-10T16:08:37;0.50;1.00
6756;DHT22;3415;51.148;7.014;2022-12-10T16:11:12;0.60;1.00
6756;DHT22;3415;51.148;7.014;2022-12-10T16:13:47;0.60;1.00
6756;DHT22;3415;51.148;7.014;2022-12-10T16:16:15;0.60;1.00
6756;DHT22;3415;51.148;7.014;2022-12-10T16:18:43;0.70;1.00
6756;DHT22;3415;51.148;7.014;2022-12-10T16:21:11;0.70;1.00
6756;DHT22;3415;51.148;7.014;2022-12-10T16:23:39;0.70;1.00
6756;DHT22;3415;51.148;7.014;2022-12-10T16:26:13;0.70;1.00
6756;DHT22;3415;51.148;7.014;2022-12-10T16:28:41;0.70;1.00
6756;DHT22;3415;51.148;7.014;2022-12-10T16:31:11;0.60;1.00
6756;DHT22;3415;51.148;7.014;2022-12-10T16:33:39;0.60;1.00
6756;DHT22;3415;51.148;7.014;2022-12-10T16:36:07;0.70;1.00
6756;DHT22;3415;51.148;7.014;2022-12-10T16:38:34;0.70;1.00
6756;DHT22;3415;51.148;7.014;2022-12-10T16:41:03;0.70;1.00
6756;DHT22;3415;51.148;7.014;2022-12-10T16:43:36;0.70;1.00
6756;DHT22;3415;51.148;7.014;2022-12-10T16:46:04;0.70;1.00
6756;DHT22;3415;51.148;7.014;2022-12-10T16:48:31;0.70;1.00
6756;DHT22;3415;51.148;7.014;2022-12-10T16:50:58;0.60;1.00
6756;DHT22;3415;51.148;7.014;2022-12-10T16:53:28;0.60;1.00
6756;DHT22;3415;51.148;7.014;2022-12-10T16:56:04;0.60;1.00
6756;DHT22;3415;51.148;7.014;2022-12-10T16:58:34;0.60;1.00
6756;DHT22;3415;51.148;7.014;2022-12-10T17:01:01;0.60;1.00
6756;DHT22;3415;51.148;7.014;2022-12-10T17:03:29;0.60;1.00
6756;DHT22;3415;51.148;7.014;2022-12-10T17:05:59;0.60;1.00
6756;DHT22;3415;51.148;7.014;2022-12-10T17:10:57;0.60;1.00
6756;DHT22;3415;51.148;7.014;2022-12-10T17:13:44;0.60;1.00
6756;DHT22;3415;51.148;7.014;2022-12-10T17:16:15;0.60;1.00
6756;DHT22;3415;51.148;7.014;2022-12-10T17:21:16;0.60;1.00
6756;DHT22;3415;51.148;7.014;2022-12-10T17:23:44;0.60;1.00
6756;DHT22;3415;51.148;7.014;2022-12-10T17:26:20;0.70;1.00
6756;DHT22;3415;51.148;7.014;2022-12-10T17:28:52;0.70;1.00
6756;DHT22;3415;51.148;7.014;2022-12-10T17:36:14;0.60;1.00